Impacts METAR Board
IDs:

KSAT - San Antonio Intl, TX, US

Updated at: 0400 UTC 21 Jun 2021
Potential Impact None Slight Moderate High
Time 20/16Z 20/17Z 20/18Z 20/19Z 20/20Z 20/21Z 20/22Z 20/23Z 21/00Z 21/01Z 21/02Z 21/03Z 21/04Z
Temp86 87 89 89 90 90 89 88 87 86 84 83 82
Dewpt73 72 74 73 73 73 72 74 72 74 74 76 76
Altim29.86 29.84 29.82 29.80 29.78 29.77 29.76 29.75 29.76 29.77 29.76 29.78 29.80
VIS10 10 10 10 10 10 10 10 10 10 10 10 10
CIG250 250 35 36 250 250 250 250 250 -- -- 18 16
CoverBKNBKNBKNBKNBKNBKNBKNBKNBKNSCTSCTBKNBKN
FltCatVFRVFRVFRVFRVFRVFRVFRVFRVFRVFRVFRMVFRMVFR
WX--------------------------
WDir160150160150170150170140150140130130130
WSpd12 13 10 15 10 9 12 15 13 14 15 12 13
WGst-- -- 19 20 18 -- -- 22 -- -- -- 21 --
R04/22
XWnd -10 -12 -9 -14 -8 -9 -9 -15 -12 -14 -15 -12 -13
XGst -- -- -17 -19 -14 -- -- -22 -- -- -- -21 --
HWnd -6 -4 -5 -5 -6 -3 -8 -2 -4 -2 0 0 0
HGst -- -- -9 -7 -11 -- -- -3 -- -- -- 0 --
R12/30
XWnd -6 -4 -5 -5 -6 -3 -7 -2 -4 -2 1 0 0
XGst -- -- -9 -6 -11 -- -- -3 -- -- -- 1 --
HWnd 11 12 9 14 8 9 9 15 12 14 15 12 13
HGst -- -- 17 19 14 -- -- 22 -- -- -- 21 --
Raw hourly METARs
KSAT 201551Z 16012KT 10SM SCT026 BKN250 30/23 A2986 RMK AO2 SLP091 T03000228
KSAT 201651Z 15013KT 10SM FEW031 FEW140 BKN250 31/22 A2984 RMK AO2 SLP084 T03060222
KSAT 201751Z 16010G19KT 10SM BKN035 BKN250 32/23 A2982 RMK AO2 SLP079 T03170233 10317 20250 56019
KSAT 201851Z 15015G20KT 10SM BKN036 BKN250 32/23 A2980 RMK AO2 SLP070 T03170228
KSAT 201951Z 17010G18KT 10SM SCT046 BKN250 32/23 A2978 RMK AO2 SLP064 T03220228
KSAT 202051Z 15009KT 10SM SCT041 BKN250 32/23 A2977 RMK AO2 SLP061 T03220228 56017
KSAT 202151Z 17012KT 10SM FEW039 BKN250 32/22 A2976 RMK AO2 SLP059 T03170222
KSAT 202251Z 14015G22KT 10SM SCT039 BKN250 31/23 A2975 RMK AO2 SLP056 T03110233
KSAT 202351Z 15013KT 10SM FEW040 BKN250 31/22 A2976 RMK AO2 SLP057 T03060222 10333 20306 55004
KSAT 210051Z 14014KT 10SM FEW033 SCT250 30/23 A2977 RMK AO2 SLP061 T03000233
KSAT 210151Z 13015KT 10SM FEW030 SCT250 29/23 A2976 RMK AO2 SLP059 T02890233
KSAT 210251Z 13012G21KT 10SM BKN018 BKN025 28/24 A2978 RMK AO2 SLP066 T02830244 53008 $
KSAT 210351Z 13013KT 10SM BKN016 BKN023 28/24 A2980 RMK AO2 SLP072 T02780244 $



Page loaded:  04:22 UTC  |   09:22 PM Pacific  |   10:22 PM Mountain  |   11:22 PM Central  |   12:22 AM Eastern

 

ADVISORIES

FORECASTS

FORECASTS

OBSERVATIONS

USER TOOLS

ABOUT US